Time;durP1;ratioP1;P1;durP2;ratioP2;P2;SDS_P1;SDS_P2;PMS_P1;PMS_P2;Temp;Humidity;BMP_temperature;BMP_pressure;BME280_temperature;BME280_humidity;BME280_pressure;Samples;Min_cycle;Max_cycle;Signal;HPM_P1;HPM_P2
2021/06/22 00:01:08;;;;;;;;;0.25;0.25;;;;;23.04;47.67;99841.06;5066745;27;45648;-77
2021/06/22 00:03:33;;;;;;;;;2.00;2.00;;;;;23.04;47.43;99845.53;5074500;28;45576;-77
2021/06/22 00:05:59;;;;;;;;;2.50;2.50;;;;;23.03;47.53;99833.22;5076016;27;45596;-78
2021/06/22 00:08:24;;;;;;;;;2.75;0.75;;;;;23.02;48.07;99831.53;5057280;28;53282;-78
2021/06/22 00:10:50;;;;;;;;;0.75;0.75;;;;;23.01;47.91;99835.16;5073756;27;45526;-79
2021/06/22 00:13:16;;;;;;;;;3.25;2.00;;;;;23.00;47.93;99847.66;5072089;27;54886;-78
2021/06/22 00:15:42;;;;;;;;;2.75;1.75;;;;;22.98;48.16;99846.06;5075911;27;45762;-78
2021/06/22 00:18:07;;;;;;;;;2.50;1.75;;;;;22.96;47.55;99848.88;5090761;27;45473;-79
2021/06/22 00:20:33;;;;;;;;;1.00;1.00;;;;;22.97;48.07;99852.38;5057179;28;45967;-79
2021/06/22 00:22:58;;;;;;;;;2.50;1.75;;;;;22.95;48.09;99847.19;5056260;28;45411;-79
2021/06/22 00:25:24;;;;;;;;;1.00;1.00;;;;;22.96;47.97;99848.03;5078111;27;45575;-79
2021/06/22 00:27:50;;;;;;;;;1.50;1.00;;;;;22.96;47.82;99853.34;5053049;28;46120;-77
2021/06/22 00:30:16;;;;;;;;;1.00;1.00;;;;;22.96;48.18;99851.53;5039025;28;45930;-80
2021/06/22 00:32:41;;;;;;;;;0.00;0.00;;;;;22.95;47.87;99849.00;5066578;28;45766;-79
2021/06/22 00:35:08;;;;;;;;;1.00;1.00;;;;;22.95;48.42;99852.50;5061881;28;45441;-78
2021/06/22 00:37:33;;;;;;;;;0.75;0.75;;;;;22.96;48.24;99854.19;5075912;27;46066;-78
2021/06/22 00:39:58;;;;;;;;;1.00;1.00;;;;;22.97;48.00;99850.56;5091159;27;45527;-78
2021/06/22 00:42:24;;;;;;;;;1.00;1.00;;;;;22.98;48.39;99852.22;5089584;27;57094;-77
2021/06/22 00:44:56;;;;;;;;;1.00;1.00;;;;;22.99;47.99;99851.28;5074325;27;45579;-76
2021/06/22 00:47:21;;;;;;;;;1.75;1.00;;;;;22.99;47.88;99842.41;5057037;28;45747;-79
2021/06/22 00:49:47;;;;;;;;;0.00;0.00;;;;;22.99;48.04;99859.28;5073225;28;45398;-78
2021/06/22 00:52:13;;;;;;;;;2.50;2.50;;;;;22.99;47.81;99859.28;5056867;28;45452;-78
2021/06/22 00:54:38;;;;;;;;;2.00;2.00;;;;;22.99;48.41;99859.28;5066256;27;45651;-79
2021/06/22 00:57:07;;;;;;;;;3.25;3.00;;;;;23.00;48.58;99854.78;5073745;27;48255;-79
2021/06/22 00:59:33;;;;;;;;;2.50;2.50;;;;;22.98;47.98;99846.91;5074845;27;45334;-78
2021/06/22 01:01:59;;;;;;;;;2.00;2.00;;;;;22.98;48.47;99852.22;5056561;28;45437;-79
2021/06/22 01:04:26;;;;;;;;;5.00;4.00;;;;;22.97;48.64;99842.56;5073297;27;45381;-79
2021/06/22 01:06:54;;;;;;;;;6.25;5.00;;;;;22.99;48.25;99853.06;5072158;28;46307;-78
2021/06/22 01:09:19;;;;;;;;;6.75;5.25;;;;;22.97;48.24;99847.88;5055956;28;45449;-78
2021/06/22 01:11:45;;;;;;;;;7.75;7.75;;;;;22.97;48.62;99849.72;5072868;27;55735;-78
2021/06/22 01:14:10;;;;;;;;;13.25;9.50;;;;;22.98;48.64;99851.38;5074557;27;45408;-79
2021/06/22 01:16:35;;;;;;;;;12.25;8.25;;;;;22.98;48.48;99857.56;5089884;27;46419;-79
2021/06/22 01:19:04;;;;;;;;;11.00;11.00;;;;;22.98;48.86;99860.22;5090695;27;45436;-79
2021/06/22 01:21:31;;;;;;;;;10.75;8.75;;;;;22.98;48.63;99857.56;5074466;27;45419;-79
2021/06/22 01:24:13;;;;;;;;;7.00;6.25;;;;;22.98;48.39;99859.38;5070103;27;45497;-77
2021/06/22 01:26:44;;;;;;;;;8.00;7.75;;;;;22.98;48.40;99856.72;5072552;27;46393;-78
2021/06/22 01:29:10;;;;;;;;;5.00;5.00;;;;;22.97;48.98;99853.22;5073923;28;45519;-79
2021/06/22 01:31:35;;;;;;;;;5.00;5.00;;;;;22.96;48.77;99848.03;5074631;27;45341;-79
2021/06/22 01:34:01;;;;;;;;;4.75;4.75;;;;;22.96;48.60;99842.69;5072235;28;45671;-79
2021/06/22 01:36:31;;;;;;;;;3.00;3.00;;;;;22.95;48.88;99833.88;5074013;27;49510;-78
2021/06/22 01:38:56;;;;;;;;;2.75;2.75;;;;;22.95;49.02;99830.38;5071981;28;45516;-79
2021/06/22 01:41:27;;;;;;;;;2.75;2.75;;;;;22.94;48.68;99834.00;5056173;28;45598;-77
2021/06/22 01:43:53;;;;;;;;;3.50;3.25;;;;;22.92;49.26;99834.13;5072221;28;45549;-78
2021/06/22 01:46:19;;;;;;;;;3.50;3.00;;;;;22.91;48.80;99824.47;5072106;28;55484;-78
2021/06/22 01:48:44;;;;;;;;;2.00;2.00;;;;;22.90;49.34;99822.78;5072891;27;45466;-78
2021/06/22 01:51:09;;;;;;;;;4.25;4.25;;;;;22.90;48.97;99819.28;5076249;28;45883;-79
2021/06/22 01:53:35;;;;;;;;;1.50;1.00;;;;;22.89;49.33;99821.09;5076728;28;45617;-78
2021/06/22 01:56:00;;;;;;;;;1.75;1.75;;;;;22.88;49.01;99819.41;5058231;27;48265;-78
2021/06/22 01:58:26;;;;;;;;;4.00;2.75;;;;;22.88;49.27;99826.56;5075187;27;45471;-78
2021/06/22 02:00:53;;;;;;;;;2.75;2.50;;;;;22.86;49.29;99826.69;5077433;27;45314;-78
2021/06/22 02:03:19;;;;;;;;;1.75;1.75;;;;;22.85;49.14;99822.34;5075604;27;45767;-78
2021/06/22 02:05:45;;;;;;;;;3.00;3.00;;;;;22.85;49.43;99820.53;5061412;27;46644;-78
2021/06/22 02:08:10;;;;;;;;;1.75;1.75;;;;;22.84;49.46;99818.00;5081647;27;45392;-77
2021/06/22 02:10:36;;;;;;;;;2.00;2.00;;;;;22.82;49.46;99819.97;5062210;28;45407;-77
2021/06/22 02:13:02;;;;;;;;;3.50;2.00;;;;;22.82;49.44;99827.94;5077855;27;45561;-76
2021/06/22 02:15:27;;;;;;;;;4.50;3.25;;;;;22.81;49.32;99834.22;5078677;28;45425;-78
2021/06/22 02:17:52;;;;;;;;;3.25;3.00;;;;;22.80;49.52;99836.03;5076806;27;45429;-78
2021/06/22 02:20:18;;;;;;;;;3.25;3.25;;;;;22.79;49.77;99842.34;5042154;27;45392;-78
2021/06/22 02:22:43;;;;;;;;;2.00;2.00;;;;;22.77;49.67;99844.31;5076348;27;45352;-78
2021/06/22 02:25:09;;;;;;;;;3.50;3.50;;;;;22.76;49.90;99852.41;5077602;27;46439;-79
2021/06/22 02:27:35;;;;;;;;;5.25;4.75;;;;;22.74;49.73;99836.56;5059417;28;45521;-79
2021/06/22 02:30:01;;;;;;;;;3.25;3.25;;;;;22.71;49.70;99834.16;5075862;28;45688;-78
2021/06/22 02:32:26;;;;;;;;;5.00;3.00;;;;;22.71;49.82;99831.50;5075900;27;45394;-79
2021/06/22 02:34:52;;;;;;;;;5.25;4.50;;;;;22.70;50.18;99826.31;5052942;28;45498;-79
2021/06/22 02:37:17;;;;;;;;;3.00;3.00;;;;;22.68;50.08;99828.28;5057413;28;48317;-77
2021/06/22 02:39:44;;;;;;;;;4.25;3.00;;;;;22.66;50.13;99828.41;5071450;27;50493;-77
2021/06/22 02:42:09;;;;;;;;;4.75;3.75;;;;;22.66;50.20;99843.53;5069304;28;45640;-77
2021/06/22 02:44:35;;;;;;;;;4.00;4.00;;;;;22.64;50.47;99838.34;5065666;28;46477;-77
2021/06/22 02:47:00;;;;;;;;;5.25;4.50;;;;;22.63;50.36;99843.81;5039588;28;51688;-78
2021/06/22 02:49:25;;;;;;;;;7.25;6.00;;;;;22.63;50.63;99849.13;5047707;28;45441;-77
2021/06/22 02:51:51;;;;;;;;;7.75;6.00;;;;;22.62;50.60;99850.09;5074850;28;45366;-77
2021/06/22 02:54:16;;;;;;;;;4.25;4.25;;;;;22.61;50.87;99846.59;5090260;27;46453;-77
2021/06/22 02:56:42;;;;;;;;;8.75;8.00;;;;;22.61;50.40;99854.59;5057265;28;55804;-77
2021/06/22 02:59:07;;;;;;;;;10.25;7.25;;;;;22.61;50.65;99853.75;5076453;28;45306;-77
2021/06/22 03:01:32;;;;;;;;;6.75;6.75;;;;;22.59;50.56;99843.25;5057135;28;49513;-77
2021/06/22 03:03:58;;;;;;;;;8.75;8.75;;;;;22.60;51.01;99854.72;5074727;28;58255;-78
2021/06/22 03:06:23;;;;;;;;;11.75;8.25;;;;;22.57;50.82;99863.81;5092622;27;45747;-78
2021/06/22 03:08:49;;;;;;;;;7.75;7.25;;;;;22.58;51.17;99857.53;5076255;27;45354;-79
2021/06/22 03:11:14;;;;;;;;;9.25;8.00;;;;;22.59;51.12;99851.22;5075171;28;45639;-79
2021/06/22 03:13:40;;;;;;;;;8.50;8.50;;;;;22.58;51.32;99849.53;5076012;27;46296;-80
2021/06/22 03:16:05;;;;;;;;;7.00;6.25;;;;;22.59;51.05;99845.06;5075055;28;45604;-79
2021/06/22 03:18:30;;;;;;;;;8.25;6.50;;;;;22.59;51.10;99850.38;5073595;28;46053;-79
2021/06/22 03:20:56;;;;;;;;;9.25;8.25;;;;;22.58;51.45;99848.69;5074884;27;45667;-80
2021/06/22 03:23:21;;;;;;;;;6.50;6.50;;;;;22.58;51.57;99849.53;5056922;28;46230;-80
2021/06/22 03:25:47;;;;;;;;;8.75;7.00;;;;;22.56;51.73;99846.16;5055764;28;45422;-79
2021/06/22 03:28:12;;;;;;;;;7.00;6.25;;;;;22.55;51.50;99842.63;5075301;27;51758;-78
2021/06/22 03:30:39;;;;;;;;;8.25;8.25;;;;;22.56;51.53;99840.84;5058592;27;45608;-79
2021/06/22 03:33:05;;;;;;;;;13.00;9.25;;;;;22.55;52.11;99839.13;5057003;28;45616;-79
2021/06/22 03:35:30;;;;;;;;;5.50;5.50;;;;;22.53;51.40;99841.91;5066673;27;45527;-78
2021/06/22 03:37:56;;;;;;;;;8.50;7.75;;;;;22.54;51.80;99853.41;5053694;28;45430;-76
2021/06/22 03:40:22;;;;;;;;;10.75;9.25;;;;;22.53;52.10;99849.91;5055355;28;45387;-77
2021/06/22 03:42:47;;;;;;;;;8.00;8.00;;;;;22.52;51.68;99855.38;5055104;28;45756;-78
2021/06/22 03:45:13;;;;;;;;;11.25;9.00;;;;;22.51;52.00;99853.69;5057083;28;45429;-78
2021/06/22 03:47:39;;;;;;;;;12.25;8.50;;;;;22.51;51.85;99859.84;5025817;28;45372;-78
2021/06/22 03:50:05;;;;;;;;;8.25;7.00;;;;;22.50;52.12;99857.31;5059067;28;45589;-78
2021/06/22 03:52:31;;;;;;;;;8.25;8.25;;;;;22.49;52.29;99850.31;5056586;28;45747;-76
2021/06/22 03:54:56;;;;;;;;;9.75;9.00;;;;;22.49;51.91;99855.63;5056352;28;64669;-79
2021/06/22 03:57:22;;;;;;;;;8.00;8.00;;;;;22.48;52.00;99864.59;5037023;28;55615;-77
2021/06/22 03:59:48;;;;;;;;;6.50;6.50;;;;;22.46;52.33;99867.38;5052044;28;45410;-78
2021/06/22 04:02:13;;;;;;;;;8.25;7.00;;;;;22.45;52.25;99865.69;5070631;28;46239;-78
2021/06/22 04:04:39;;;;;;;;;6.50;6.25;;;;;22.45;51.95;99872.84;5069410;28;45524;-78
2021/06/22 04:07:04;;;;;;;;;7.25;5.00;;;;;22.45;52.11;99870.19;5091016;27;45503;-78
2021/06/22 04:09:30;;;;;;;;;7.50;5.75;;;;;22.45;52.09;99878.16;5057531;27;45715;-78
2021/06/22 04:11:56;;;;;;;;;4.50;4.50;;;;;22.43;52.25;99874.78;5073055;27;47185;-78
2021/06/22 04:14:22;;;;;;;;;6.00;6.00;;;;;22.41;52.60;99882.06;5073286;28;45929;-79
2021/06/22 04:16:47;;;;;;;;;6.50;6.50;;;;;22.42;52.22;99879.28;5073660;28;45343;-79
2021/06/22 04:19:13;;;;;;;;;6.00;6.00;;;;;22.40;52.05;99878.56;5065001;27;45585;-81
2021/06/22 04:21:39;;;;;;;;;5.25;5.25;;;;;22.39;52.44;99892.00;5053932;28;46535;-79
2021/06/22 04:24:05;;;;;;;;;5.50;4.75;;;;;22.38;52.40;99895.63;5036060;28;45477;-79
2021/06/22 04:26:30;;;;;;;;;6.00;6.00;;;;;22.38;52.34;99900.97;5052981;28;45352;-77
2021/06/22 04:28:55;;;;;;;;;6.00;5.00;;;;;22.36;52.09;99908.22;5071540;28;45593;-79
2021/06/22 04:31:21;;;;;;;;;5.50;5.00;;;;;22.34;52.74;99905.69;5073664;27;45736;-80
2021/06/22 04:33:46;;;;;;;;;4.00;4.00;;;;;22.33;52.47;99898.66;5083912;27;45433;-79
2021/06/22 04:36:12;;;;;;;;;6.00;5.00;;;;;22.31;52.64;99895.28;5057966;28;45504;-79
2021/06/22 04:38:37;;;;;;;;;4.50;3.00;;;;;22.30;52.38;99898.91;5047694;28;45701;-78
2021/06/22 04:41:03;;;;;;;;;5.25;5.25;;;;;22.29;52.58;99902.56;5075047;27;46602;-79
2021/06/22 04:43:28;;;;;;;;;4.50;4.50;;;;;22.29;52.72;99901.72;5056470;28;45640;-79
2021/06/22 04:45:54;;;;;;;;;5.50;5.50;;;;;22.27;52.74;99901.84;5069413;28;45622;-79
2021/06/22 04:48:19;;;;;;;;;6.25;6.00;;;;;22.27;52.71;99907.16;5054224;28;45581;-78
2021/06/22 04:50:44;;;;;;;;;8.75;7.25;;;;;22.26;52.51;99905.47;5079373;27;60896;-79
2021/06/22 04:53:10;;;;;;;;;6.25;6.25;;;;;22.25;52.95;99904.63;5087489;27;56043;-80
2021/06/22 04:55:35;;;;;;;;;7.75;7.00;;;;;22.24;53.25;99905.59;5080680;27;45591;-79
2021/06/22 04:58:01;;;;;;;;;8.25;6.00;;;;;22.24;53.01;99902.94;5055131;28;45810;-79
2021/06/22 05:00:27;;;;;;;;;8.25;7.00;;;;;22.25;53.10;99906.47;5078231;27;46054;-76
2021/06/22 05:02:52;;;;;;;;;8.00;8.00;;;;;22.25;53.24;99909.13;5051671;28;45613;-76
2021/06/22 05:05:18;;;;;;;;;7.75;7.75;;;;;22.24;52.91;99912.75;5063597;27;45597;-75
2021/06/22 05:07:43;;;;;;;;;9.75;9.00;;;;;22.14;54.98;99909.19;5065456;28;45453;-75
2021/06/22 05:10:12;;;;;;;;;8.75;8.25;;;;;21.88;55.78;99896.19;5074103;27;46202;-77
2021/06/22 05:12:40;;;;;;;;;10.50;10.00;;;;;21.60;56.70;99902.09;5057830;27;45798;-80
2021/06/22 05:15:06;;;;;;;;;15.25;12.50;;;;;21.38;57.03;99908.28;5061406;27;45506;-77
2021/06/22 05:17:31;;;;;;;;;13.50;12.25;;;;;21.20;58.42;99899.94;5070885;27;45538;-77
2021/06/22 05:19:57;;;;;;;;;15.00;14.00;;;;;21.02;58.09;99904.88;5065108;28;61590;-78
2021/06/22 05:22:22;;;;;;;;;10.75;10.75;;;;;20.90;58.63;99911.19;5070573;27;45717;-79
2021/06/22 05:24:48;;;;;;;;;14.75;13.75;;;;;20.83;59.13;99906.47;5101690;27;45859;-80
2021/06/22 05:27:13;;;;;;;;;10.25;10.25;;;;;20.75;59.74;99907.06;5075427;27;45484;-77
2021/06/22 05:29:39;;;;;;;;;11.75;10.50;;;;;20.66;60.07;99908.63;5078586;27;46008;-82
2021/06/22 05:32:05;;;;;;;;;13.50;11.25;;;;;20.60;60.08;99911.72;5070890;27;45438;-79
2021/06/22 05:34:31;;;;;;;;;17.25;13.75;;;;;20.52;60.22;99913.31;5069761;28;45936;-74
2021/06/22 05:36:57;;;;;;;;;15.50;13.25;;;;;20.47;60.60;99918.13;5084536;27;45446;-76
2021/06/22 05:39:22;;;;;;;;;14.50;13.50;;;;;20.40;62.34;99918.59;5072562;27;45895;-79
2021/06/22 05:41:48;;;;;;;;;11.50;11.25;;;;;20.29;62.24;99931.78;5052165;28;45748;-79
2021/06/22 05:44:13;;;;;;;;;13.50;12.75;;;;;20.09;62.58;99920.00;5062624;27;45777;-79
2021/06/22 05:46:38;;;;;;;;;17.00;14.25;;;;;20.02;62.44;99925.91;5054973;28;45604;-76
2021/06/22 05:49:04;;;;;;;;;15.25;15.25;;;;;19.94;62.95;99929.09;5085973;27;64459;-82
2021/06/22 05:51:29;;;;;;;;;16.75;15.00;;;;;19.87;63.19;99934.97;5071199;28;45589;-83
2021/06/22 05:53:55;;;;;;;;;16.00;14.50;;;;;19.86;63.55;99933.28;5074963;27;45487;-81
2021/06/22 05:56:21;;;;;;;;;15.00;14.75;;;;;19.86;63.38;99944.72;5062124;27;45462;-79
2021/06/22 05:58:46;;;;;;;;;20.00;15.75;;;;;19.87;64.02;99937.63;5056482;28;45608;-81
2021/06/22 06:01:11;;;;;;;;;16.75;13.50;;;;;19.85;63.52;99937.72;5064220;28;45771;-79
2021/06/22 06:03:37;;;;;;;;;17.50;15.50;;;;;19.87;63.75;99940.28;5057248;28;45513;-79
2021/06/22 06:06:03;;;;;;;;;15.75;12.50;;;;;19.90;63.69;99934.75;5076962;27;45419;-80
2021/06/22 06:08:29;;;;;;;;;16.50;16.25;;;;;19.92;63.71;99946.91;5053543;28;46229;-79
2021/06/22 06:10:55;;;;;;;;;23.25;21.50;;;;;19.97;63.30;99942.16;5070874;27;45449;-77
2021/06/22 06:13:29;;;;;;;;;18.25;17.50;;;;;20.00;63.57;99947.22;5059961;28;45390;-78
2021/06/22 06:15:54;;;;;;;;;18.25;16.25;;;;;19.97;63.87;99962.50;5089459;27;45528;-77
2021/06/22 06:18:20;;;;;;;;;22.00;18.50;;;;;19.93;64.20;99955.72;5053797;28;47063;-78
2021/06/22 06:20:45;;;;;;;;;18.00;16.50;;;;;19.96;64.10;99960.81;5075902;28;45392;-79
2021/06/22 06:23:11;;;;;;;;;21.50;19.50;;;;;19.99;63.95;99964.09;5057609;27;45514;-79
2021/06/22 06:25:36;;;;;;;;;23.50;20.75;;;;;20.00;63.96;99968.41;5071701;28;45548;-80
2021/06/22 06:28:06;;;;;;;;;21.25;15.75;;;;;19.98;64.14;99969.50;5072078;27;45745;-80
2021/06/22 06:30:33;;;;;;;;;23.25;20.50;;;;;20.00;64.50;99968.41;5072734;27;45941;-74
2021/06/22 06:32:59;;;;;;;;;21.50;21.50;;;;;19.95;64.53;99967.88;5070947;28;45461;-73
2021/06/22 06:35:24;;;;;;;;;22.75;19.75;;;;;19.91;64.39;99957.63;5072501;27;45567;-74
2021/06/22 06:37:50;;;;;;;;;16.75;16.75;;;;;19.93;64.42;99969.81;5073068;27;47282;-80
2021/06/22 06:40:15;;;;;;;;;23.25;22.50;;;;;19.90;64.55;99961.25;5074688;27;45406;-80
2021/06/22 06:42:41;;;;;;;;;25.25;21.75;;;;;19.92;64.70;99964.63;5049978;28;45438;-79
2021/06/22 06:45:08;;;;;;;;;16.50;15.25;;;;;19.87;64.93;99961.47;5073603;27;45492;-80
2021/06/22 06:47:34;;;;;;;;;18.50;18.50;;;;;19.86;64.96;99973.88;5074081;27;48268;-81
2021/06/22 06:49:59;;;;;;;;;18.50;18.50;;;;;19.85;65.07;99966.88;5077224;28;45609;-80
2021/06/22 06:52:25;;;;;;;;;19.50;19.50;;;;;19.86;64.45;99975.69;5079023;28;45351;-80
2021/06/22 06:54:50;;;;;;;;;19.50;17.25;;;;;19.86;65.03;99967.72;5094541;27;45786;-82
2021/06/22 06:57:15;;;;;;;;;25.00;22.75;;;;;19.90;64.55;99977.16;5077419;27;45698;-81
2021/06/22 06:59:41;;;;;;;;;20.25;19.50;;;;;19.90;64.63;99985.09;5062858;28;45422;-80
2021/06/22 07:02:07;;;;;;;;;25.50;23.75;;;;;19.89;64.86;99983.41;5078497;27;45690;-80
2021/06/22 07:04:33;;;;;;;;;18.25;17.50;;;;;19.90;65.14;99983.28;5099129;27;45572;-79
2021/06/22 07:06:59;;;;;;;;;22.25;21.25;;;;;19.89;64.79;99991.34;5089545;27;46128;-76
2021/06/22 07:09:24;;;;;;;;;31.25;26.00;;;;;19.87;64.80;99993.28;5087731;27;45465;-78
2021/06/22 07:11:50;;;;;;;;;32.25;24.00;;;;;19.89;64.57;99996.66;5058267;27;44728;-77
2021/06/22 07:14:15;;;;;;;;;25.75;22.50;;;;;19.91;64.68;99987.63;5061941;28;45575;-78
2021/06/22 07:16:42;;;;;;;;;26.50;20.75;;;;;19.93;64.38;99991.00;5076354;28;46619;-79
2021/06/22 07:19:07;;;;;;;;;22.50;20.75;;;;;19.97;64.30;99989.84;5066587;27;45594;-76
2021/06/22 07:21:33;;;;;;;;;23.00;19.00;;;;;20.04;64.49;99999.03;5063216;27;45714;-75
2021/06/22 07:23:58;;;;;;;;;23.00;22.00;;;;;20.03;64.70;99997.34;5068942;27;45849;-77
2021/06/22 07:26:24;;;;;;;;;29.50;25.00;;;;;19.94;64.99;99991.84;5053920;28;46161;-78
2021/06/22 07:28:50;;;;;;;;;21.75;18.50;;;;;19.88;64.93;99997.63;5072526;27;45741;-77
2021/06/22 07:31:15;;;;;;;;;21.00;19.00;;;;;19.86;65.15;99994.22;5073576;28;45433;-75
2021/06/22 07:33:42;;;;;;;;;20.25;18.25;;;;;19.87;65.11;99990.63;5078868;27;45600;-75
2021/06/22 07:36:08;;;;;;;;;24.25;21.75;;;;;19.87;65.16;99990.63;5056612;28;45627;-81
2021/06/22 07:38:33;;;;;;;;;20.50;20.50;;;;;19.88;64.92;99987.00;5059919;27;45559;-77
2021/06/22 07:40:59;;;;;;;;;23.00;23.00;;;;;19.84;65.13;99991.69;5055097;28;45362;-77
2021/06/22 07:43:24;;;;;;;;;25.25;21.00;;;;;19.80;65.36;99991.06;5058962;28;45687;-75
2021/06/22 07:45:50;;;;;;;;;20.25;19.00;;;;;19.80;64.77;99992.88;5063673;28;47884;-75
2021/06/22 07:48:15;;;;;;;;;27.75;23.50;;;;;19.80;64.92;99987.56;5062508;28;45471;-72
2021/06/22 07:50:41;;;;;;;;;23.25;18.25;;;;;19.80;64.99;99992.88;5067267;28;45568;-78
2021/06/22 07:53:06;;;;;;;;;23.75;22.50;;;;;19.83;64.30;99993.50;5069710;28;45714;-77
2021/06/22 07:55:32;;;;;;;;;22.25;21.50;;;;;19.83;64.43;99992.66;5070215;27;45478;-76
2021/06/22 07:57:57;;;;;;;;;21.50;21.50;;;;;19.80;64.54;99996.38;5065565;27;50050;-73
2021/06/22 08:00:42;;;;;;;;;25.75;21.00;;;;;19.76;64.30;99997.56;5067149;28;45488;-75
2021/06/22 08:03:17;;;;;;;;;28.25;23.25;;;;;19.79;64.56;100004.44;5071533;27;45582;-78
2021/06/22 08:05:44;;;;;;;;;28.00;25.75;;;;;19.76;65.03;100008.16;5066546;27;45594;-76
2021/06/22 08:08:12;;;;;;;;;24.00;21.25;;;;;19.79;64.45;100004.44;5066418;27;45405;-73
2021/06/22 08:10:38;;;;;;;;;24.00;18.75;;;;;19.89;64.27;100007.25;5077091;27;45401;-77
2021/06/22 08:13:04;;;;;;;;;27.75;26.75;;;;;19.94;64.38;100015.72;5066268;27;45423;-76
2021/06/22 08:15:29;;;;;;;;;19.50;19.50;;;;;19.98;63.43;100015.41;5062134;28;47533;-79
2021/06/22 08:17:55;;;;;;;;;24.00;21.00;;;;;20.04;63.35;100016.75;5062124;28;45546;-79
2021/06/22 08:20:21;;;;;;;;;23.50;22.75;;;;;20.03;64.01;100023.84;5063338;27;45785;-77
2021/06/22 08:22:52;;;;;;;;;24.25;17.00;;;;;19.98;63.76;100023.34;5073442;28;45672;-79
2021/06/22 08:25:18;;;;;;;;;22.25;21.75;;;;;19.87;64.20;100025.91;5058588;28;48062;-80
2021/06/22 08:27:44;;;;;;;;;24.25;22.75;;;;;19.77;64.35;100023.09;5051347;28;45611;-78
2021/06/22 08:30:10;;;;;;;;;26.50;22.00;;;;;19.75;63.83;100030.31;5037370;28;45413;-77
2021/06/22 08:32:35;;;;;;;;;22.25;20.25;;;;;19.77;64.79;100020.44;5093487;27;45362;-84
2021/06/22 08:35:00;;;;;;;;;24.25;22.00;;;;;19.72;64.43;100033.16;5066885;27;45646;-76
2021/06/22 08:37:26;;;;;;;;;27.00;25.50;;;;;19.64;64.71;100035.50;5087034;27;45447;-79
2021/06/22 08:39:51;;;;;;;;;23.25;22.00;;;;;19.57;65.36;100044.00;5076748;28;45859;-78
2021/06/22 08:42:17;;;;;;;;;27.50;22.50;;;;;19.43;67.12;100039.66;5066277;28;45547;-80
2021/06/22 08:44:43;;;;;;;;;31.00;26.25;;;;;19.29;66.47;100037.94;5043358;28;45520;-75
2021/06/22 08:47:08;;;;;;;;;29.50;25.25;;;;;19.23;66.90;100041.88;5069380;28;45436;-77
2021/06/22 08:49:34;;;;;;;;;35.00;31.25;;;;;19.17;66.72;100041.47;5089984;27;45699;-79
2021/06/22 08:52:00;;;;;;;;;30.00;29.25;;;;;19.12;67.97;100049.72;5068493;27;45554;-80
2021/06/22 08:54:27;;;;;;;;;29.75;27.75;;;;;19.13;67.15;100051.41;5063059;28;46297;-77
2021/06/22 08:56:54;;;;;;;;;33.00;28.75;;;;;19.18;67.76;100043.16;5053157;28;45584;-79
2021/06/22 08:59:20;;;;;;;;;29.50;28.75;;;;;19.16;67.56;100048.56;5050381;28;45383;-75
2021/06/22 09:01:45;;;;;;;;;32.50;27.75;;;;;19.17;67.71;100041.47;5044097;28;45764;-73
2021/06/22 09:04:11;;;;;;;;;30.00;28.00;;;;;19.27;67.30;100039.00;5077551;27;45497;-78
2021/06/22 09:06:41;;;;;;;;;33.25;28.50;;;;;19.40;67.03;100043.34;5062928;28;45713;-79
2021/06/22 09:09:07;;;;;;;;;31.75;29.50;;;;;19.55;66.73;100045.94;5066276;28;45860;-86
2021/06/22 09:11:33;;;;;;;;;32.25;27.50;;;;;19.68;66.20;100039.63;5056053;28;45947;-77
2021/06/22 09:14:00;;;;;;;;;28.25;26.75;;;;;19.77;66.46;100040.81;5068843;28;46449;-79
2021/06/22 09:16:25;;;;;;;;;33.75;29.25;;;;;19.88;66.48;100046.16;5086974;27;45427;-79
2021/06/22 09:18:51;;;;;;;;;25.25;21.00;;;;;19.99;65.58;100048.06;5066323;28;45546;-78
2021/06/22 09:21:19;;;;;;;;;32.75;28.00;;;;;20.13;65.42;100038.13;5064634;27;45410;-84
2021/06/22 09:23:45;;;;;;;;;25.00;22.00;;;;;20.32;65.07;100050.88;5054830;28;47165;-80
2021/06/22 09:26:14;;;;;;;;;29.75;26.25;;;;;20.53;64.74;100050.28;5063638;28;45586;-81
2021/06/22 09:28:40;;;;;;;;;26.00;23.25;;;;;20.70;64.30;100056.03;5064187;27;45414;-80
2021/06/22 09:31:09;;;;;;;;;17.50;16.50;;;;;20.81;63.99;100055.22;5073388;27;45517;-78
2021/06/22 09:33:37;;;;;;;;;26.00;25.25;;;;;20.88;63.71;100056.44;5060004;27;45466;-76
2021/06/22 09:36:17;;;;;;;;;27.25;23.75;;;;;20.99;63.02;100067.09;5070321;28;45358;-78
2021/06/22 09:38:52;;;;;;;;;21.75;20.75;;;;;21.02;62.37;100061.53;5070191;27;45515;-75
2021/06/22 09:41:31;;;;;;;;;25.50;22.00;;;;;21.05;62.33;100057.84;5069840;28;45595;-75
2021/06/22 09:44:01;;;;;;;;;26.75;23.50;;;;;21.00;62.34;100058.16;5075020;28;47274;-74
2021/06/22 09:46:31;;;;;;;;;22.00;18.75;;;;;20.99;61.86;100055.63;5055143;28;45474;-75
2021/06/22 09:48:59;;;;;;;;;25.50;24.50;;;;;21.01;62.00;100059.84;5067514;28;45406;-74
2021/06/22 09:51:35;;;;;;;;;26.50;22.50;;;;;21.07;62.08;100053.25;5069252;27;45389;-78
2021/06/22 09:54:27;;;;;;;;;24.25;22.25;;;;;21.11;61.92;100064.47;5071350;28;45424;-79
2021/06/22 09:57:02;;;;;;;;;24.00;22.50;;;;;21.22;61.94;100073.28;5079966;27;44741;-81
2021/06/22 09:59:49;;;;;;;;;27.50;21.00;;;;;21.34;61.16;100079.50;5102714;27;44842;-77
2021/06/22 10:02:15;;;;;;;;;28.50;24.75;;;;;21.48;61.24;100073.13;5080275;27;45465;-81
2021/06/22 10:04:48;;;;;;;;;22.75;21.00;;;;;21.56;61.03;100073.38;5084384;28;45304;-77
2021/06/22 10:07:17;;;;;;;;;27.25;21.75;;;;;21.54;60.91;100073.50;5081716;27;45435;-74
2021/06/22 10:09:43;;;;;;;;;21.00;19.50;;;;;21.53;60.41;100084.25;5079660;27;45501;-78
2021/06/22 10:12:13;;;;;;;;;23.00;19.75;;;;;21.50;60.41;100090.66;5065429;27;45418;-76
2021/06/22 10:14:45;;;;;;;;;21.75;18.25;;;;;21.41;60.61;100082.53;5078388;28;45363;-79
2021/06/22 10:17:18;;;;;;;;;27.50;22.25;;;;;21.37;60.70;100079.28;5081171;27;45390;-74
2021/06/22 10:19:45;;;;;;;;;17.75;17.75;;;;;21.37;60.40;100084.59;5090247;27;45700;-77
2021/06/22 10:22:12;;;;;;;;;18.25;17.50;;;;;21.27;60.76;100088.94;5080446;28;45368;-75
2021/06/22 10:24:42;;;;;;;;;19.25;18.00;;;;;21.18;60.50;100094.91;5064329;28;46425;-74
2021/06/22 10:27:08;;;;;;;;;19.00;16.00;;;;;21.06;61.04;100088.72;5070131;28;45438;-73
2021/06/22 10:29:34;;;;;;;;;20.25;18.75;;;;;20.94;60.66;100095.81;5082214;27;45752;-76
2021/06/22 10:32:00;;;;;;;;;14.75;14.50;;;;;20.87;61.49;100104.34;5093531;27;45640;-75
2021/06/22 10:34:25;;;;;;;;;17.50;14.25;;;;;20.81;61.74;100107.44;5075753;27;46031;-73
2021/06/22 10:36:53;;;;;;;;;18.75;17.00;;;;;20.71;61.89;100112.59;5060390;28;45405;-74
2021/06/22 10:39:29;;;;;;;;;18.25;17.50;;;;;20.57;62.20;100116.25;5073290;28;45554;-76
2021/06/22 10:41:56;;;;;;;;;19.25;18.75;;;;;20.43;62.74;100119.94;5063636;28;45410;-77
2021/06/22 10:44:24;;;;;;;;;22.25;18.00;;;;;20.34;63.24;100117.91;5067552;27;46618;-80
2021/06/22 10:47:21;;;;;;;;;14.00;11.75;;;;;20.29;63.38;100129.81;5078311;27;45815;-74
2021/06/22 10:50:08;;;;;;;;;15.25;15.25;;;;;20.22;63.77;100132.09;5063163;27;45319;-77
2021/06/22 10:52:43;;;;;;;;;15.00;15.00;;;;;20.16;63.97;100137.81;5072555;27;45487;-73
2021/06/22 10:55:20;;;;;;;;;20.75;17.50;;;;;20.08;64.43;100143.66;5077881;27;47047;-79
2021/06/22 11:00:57;;;;;;;;;16.00;14.75;;;;;19.95;64.44;100155.22;5071902;28;45533;-74
2021/06/22 11:03:33;;;;;;;;;18.25;15.50;;;;;19.91;65.50;100159.06;5063253;28;45434;-75
2021/06/22 11:06:20;;;;;;;;;15.00;13.25;;;;;19.86;65.42;100166.50;5063496;27;45629;-76
2021/06/22 11:08:45;;;;;;;;;15.00;14.00;;;;;19.77;65.33;100173.28;5065518;27;45536;-73
2021/06/22 11:11:10;;;;;;;;;14.50;11.00;;;;;19.68;65.38;100180.06;5071744;27;45996;-74
2021/06/22 11:13:42;;;;;;;;;11.00;11.00;;;;;19.56;65.88;100191.50;5061407;28;45612;-74
2021/06/22 11:16:13;;;;;;;;;12.00;12.00;;;;;19.42;66.58;100189.75;5064992;28;45831;-71
2021/06/22 11:18:57;;;;;;;;;15.25;13.00;;;;;19.37;66.57;100196.31;5061874;28;45467;-73
2021/06/22 11:21:41;;;;;;;;;9.75;9.25;;;;;19.37;66.77;100201.63;5061152;28;45512;-77
2021/06/22 11:24:09;;;;;;;;;16.00;16.00;;;;;19.39;67.45;100205.00;5074771;27;45492;-74